sensor_id;sensor_type;location;lat;lon;timestamp;pressure;altitude;pressure_sealevel;temperature;humidity
68230;BME280;55048;52.220;5.160;2023-05-23T00:01:32;101868.16;;;15.85;82.86
68230;BME280;55048;52.220;5.160;2023-05-23T00:03:57;101838.84;;;15.78;82.18
68230;BME280;55048;52.220;5.160;2023-05-23T00:06:23;101872.94;;;15.99;81.88
68230;BME280;55048;52.220;5.160;2023-05-23T00:08:48;101880.47;;;16.02;81.77
68230;BME280;55048;52.220;5.160;2023-05-23T00:11:14;101876.72;;;15.81;82.88
68230;BME280;55048;52.220;5.160;2023-05-23T00:13:41;101854.53;;;15.69;83.32
68230;BME280;55048;52.220;5.160;2023-05-23T00:16:07;101879.13;;;15.66;83.71
68230;BME280;55048;52.220;5.160;2023-05-23T00:18:37;101877.66;;;15.59;84.25
68230;BME280;55048;52.220;5.160;2023-05-23T00:21:04;101849.78;;;15.43;83.89
68230;BME280;55048;52.220;5.160;2023-05-23T00:23:29;101852.53;;;15.14;84.90
68230;BME280;55048;52.220;5.160;2023-05-23T00:25:58;101897.16;;;15.54;84.43
68230;BME280;55048;52.220;5.160;2023-05-23T00:28:24;101867.84;;;15.30;84.96
68230;BME280;55048;52.220;5.160;2023-05-23T00:30:50;101866.28;;;15.35;84.02
68230;BME280;55048;52.220;5.160;2023-05-23T00:33:16;101909.44;;;15.50;84.35
68230;BME280;55048;52.220;5.160;2023-05-23T00:35:45;101850.28;;;15.23;84.04
68230;BME280;55048;52.220;5.160;2023-05-23T00:38:11;101874.41;;;15.40;84.08
68230;BME280;55048;52.220;5.160;2023-05-23T00:40:37;101875.13;;;15.52;83.58
68230;BME280;55048;52.220;5.160;2023-05-23T00:43:02;101871.00;;;15.44;83.65
68230;BME280;55048;52.220;5.160;2023-05-23T00:45:27;101887.81;;;15.40;84.98
68230;BME280;55048;52.220;5.160;2023-05-23T00:47:53;101865.63;;;15.27;84.17
68230;BME280;55048;52.220;5.160;2023-05-23T00:50:19;101895.69;;;15.46;83.84
68230;BME280;55048;52.220;5.160;2023-05-23T00:52:47;101823.63;;;14.99;84.31
68230;BME280;55048;52.220;5.160;2023-05-23T00:55:13;101854.09;;;15.27;83.85
68230;BME280;55048;52.220;5.160;2023-05-23T00:57:39;101890.00;;;15.26;84.95
68230;BME280;55048;52.220;5.160;2023-05-23T01:00:09;101905.78;;;15.39;84.67
68230;BME280;55048;52.220;5.160;2023-05-23T01:02:43;101902.03;;;15.40;84.62
68230;BME280;55048;52.220;5.160;2023-05-23T01:05:10;101891.06;;;15.42;84.83
68230;BME280;55048;52.220;5.160;2023-05-23T01:07:36;101888.03;;;15.38;84.85
68230;BME280;55048;52.220;5.160;2023-05-23T01:10:02;101870.50;;;15.30;84.98
68230;BME280;55048;52.220;5.160;2023-05-23T01:12:34;101892.59;;;15.38;85.88
68230;BME280;55048;52.220;5.160;2023-05-23T01:15:07;101898.84;;;15.26;87.47
68230;BME280;55048;52.220;5.160;2023-05-23T01:17:51;101896.97;;;15.27;87.21
68230;BME280;55048;52.220;5.160;2023-05-23T01:20:26;101896.56;;;15.18;87.00
68230;BME280;55048;52.220;5.160;2023-05-23T01:25:54;101903.75;;;15.29;86.97
68230;BME280;55048;52.220;5.160;2023-05-23T01:28:28;101892.28;;;15.34;86.29
68230;BME280;55048;52.220;5.160;2023-05-23T01:30:57;101900.03;;;15.19;87.25
68230;BME280;55048;52.220;5.160;2023-05-23T01:33:24;101909.50;;;15.38;86.12
68230;BME280;55048;52.220;5.160;2023-05-23T01:35:50;101899.47;;;15.17;86.79
68230;BME280;55048;52.220;5.160;2023-05-23T01:38:16;101864.38;;;15.01;86.26
68230;BME280;55048;52.220;5.160;2023-05-23T01:40:41;101889.31;;;15.19;86.69
68230;BME280;55048;52.220;5.160;2023-05-23T01:43:08;101889.25;;;15.14;86.30
68230;BME280;55048;52.220;5.160;2023-05-23T01:45:35;101915.75;;;15.27;86.79
68230;BME280;55048;52.220;5.160;2023-05-23T01:48:02;101908.81;;;15.14;87.43
68230;BME280;55048;52.220;5.160;2023-05-23T01:50:28;101891.19;;;15.01;87.23
68230;BME280;55048;52.220;5.160;2023-05-23T01:52:55;101904.03;;;15.16;86.51
68230;BME280;55048;52.220;5.160;2023-05-23T01:55:22;101915.13;;;15.08;87.47
68230;BME280;55048;52.220;5.160;2023-05-23T01:57:50;101914.06;;;15.09;87.03
68230;BME280;55048;52.220;5.160;2023-05-23T02:00:18;101898.25;;;15.08;86.53
68230;BME280;55048;52.220;5.160;2023-05-23T02:02:45;101911.25;;;15.16;86.44
68230;BME280;55048;52.220;5.160;2023-05-23T02:05:11;101886.91;;;14.89;86.69
68230;BME280;55048;52.220;5.160;2023-05-23T02:07:37;101911.31;;;15.04;86.35
68230;BME280;55048;52.220;5.160;2023-05-23T02:10:06;101896.53;;;15.01;86.19
68230;BME280;55048;52.220;5.160;2023-05-23T02:12:32;101868.16;;;14.89;86.14
68230;BME280;55048;52.220;5.160;2023-05-23T02:14:57;101884.75;;;15.02;85.82
68230;BME280;55048;52.220;5.160;2023-05-23T02:17:22;101901.50;;;15.10;85.73
68230;BME280;55048;52.220;5.160;2023-05-23T02:19:48;101915.31;;;15.18;85.22
68230;BME280;55048;52.220;5.160;2023-05-23T02:22:14;101889.16;;;15.09;85.08
68230;BME280;55048;52.220;5.160;2023-05-23T02:24:40;101901.31;;;14.99;85.36
68230;BME280;55048;52.220;5.160;2023-05-23T02:27:05;101916.50;;;15.11;85.09
68230;BME280;55048;52.220;5.160;2023-05-23T02:29:31;101911.84;;;14.89;86.50
68230;BME280;55048;52.220;5.160;2023-05-23T02:31:57;101912.28;;;14.98;85.14
68230;BME280;55048;52.220;5.160;2023-05-23T02:34:23;101923.16;;;15.08;85.21
68230;BME280;55048;52.220;5.160;2023-05-23T02:36:48;101932.09;;;15.14;84.72
68230;BME280;55048;52.220;5.160;2023-05-23T02:39:13;101906.00;;;14.92;84.59
68230;BME280;55048;52.220;5.160;2023-05-23T02:41:39;101917.66;;;14.86;84.53
68230;BME280;55048;52.220;5.160;2023-05-23T02:44:05;101955.47;;;15.01;85.00
68230;BME280;55048;52.220;5.160;2023-05-23T02:46:30;101915.25;;;14.73;84.77
68230;BME280;55048;52.220;5.160;2023-05-23T02:48:56;101931.00;;;14.69;84.55
68230;BME280;55048;52.220;5.160;2023-05-23T02:51:21;101942.97;;;14.78;84.74
68230;BME280;55048;52.220;5.160;2023-05-23T02:53:47;101945.41;;;14.80;84.78
68230;BME280;55048;52.220;5.160;2023-05-23T02:56:12;101920.19;;;14.52;85.54
68230;BME280;55048;52.220;5.160;2023-05-23T02:58:40;101942.84;;;14.73;84.84
68230;BME280;55048;52.220;5.160;2023-05-23T03:01:05;101939.19;;;14.51;85.50
68230;BME280;55048;52.220;5.160;2023-05-23T03:03:32;101944.03;;;14.66;84.67
68230;BME280;55048;52.220;5.160;2023-05-23T03:05:58;101955.31;;;14.68;84.44
68230;BME280;55048;52.220;5.160;2023-05-23T03:08:23;101949.50;;;14.71;83.86
68230;BME280;55048;52.220;5.160;2023-05-23T03:10:49;101966.94;;;14.73;83.91
68230;BME280;55048;52.220;5.160;2023-05-23T03:13:15;101927.28;;;14.47;83.49
68230;BME280;55048;52.220;5.160;2023-05-23T03:15:41;101919.84;;;14.49;83.59
68230;BME280;55048;52.220;5.160;2023-05-23T03:18:06;101934.75;;;14.57;83.83
68230;BME280;55048;52.220;5.160;2023-05-23T03:20:32;101948.78;;;14.75;83.18
68230;BME280;55048;52.220;5.160;2023-05-23T03:22:57;101965.31;;;14.84;82.63
68230;BME280;55048;52.220;5.160;2023-05-23T03:25:23;101935.66;;;14.74;82.05
68230;BME280;55048;52.220;5.160;2023-05-23T03:27:48;101945.91;;;14.65;81.59
68230;BME280;55048;52.220;5.160;2023-05-23T03:30:13;101966.00;;;14.79;81.59
68230;BME280;55048;52.220;5.160;2023-05-23T03:32:39;101958.09;;;14.73;81.54
68230;BME280;55048;52.220;5.160;2023-05-23T03:35:05;101942.31;;;14.60;81.50
68230;BME280;55048;52.220;5.160;2023-05-23T03:37:31;101952.78;;;14.61;81.11
68230;BME280;55048;52.220;5.160;2023-05-23T03:39:56;101950.34;;;14.48;81.54
68230;BME280;55048;52.220;5.160;2023-05-23T03:42:22;101966.03;;;14.68;80.79
68230;BME280;55048;52.220;5.160;2023-05-23T03:44:47;101977.31;;;14.70;81.47
68230;BME280;55048;52.220;5.160;2023-05-23T03:47:13;101940.09;;;14.33;81.73
68230;BME280;55048;52.220;5.160;2023-05-23T03:49:41;101970.31;;;14.45;81.84
68230;BME280;55048;52.220;5.160;2023-05-23T03:52:07;101941.59;;;14.17;81.84
68230;BME280;55048;52.220;5.160;2023-05-23T03:54:33;101990.00;;;14.39;82.87
68230;BME280;55048;52.220;5.160;2023-05-23T03:56:58;101992.22;;;14.30;82.53
68230;BME280;55048;52.220;5.160;2023-05-23T03:59:24;102000.13;;;14.37;82.46
68230;BME280;55048;52.220;5.160;2023-05-23T04:01:49;101991.06;;;14.38;82.26
68230;BME280;55048;52.220;5.160;2023-05-23T04:04:15;102004.91;;;14.47;82.10
68230;BME280;55048;52.220;5.160;2023-05-23T04:06:41;101988.38;;;14.38;81.80
68230;BME280;55048;52.220;5.160;2023-05-23T04:09:07;102004.69;;;14.48;81.54
68230;BME280;55048;52.220;5.160;2023-05-23T04:11:37;101991.88;;;14.39;81.21
68230;BME280;55048;52.220;5.160;2023-05-23T04:14:03;102013.75;;;14.47;81.05
68230;BME280;55048;52.220;5.160;2023-05-23T04:16:28;102016.41;;;14.36;81.44
68230;BME280;55048;52.220;5.160;2023-05-23T04:18:58;102011.31;;;14.34;80.89
68230;BME280;55048;52.220;5.160;2023-05-23T04:21:24;102011.63;;;14.26;81.32
68230;BME280;55048;52.220;5.160;2023-05-23T04:24:01;102022.69;;;14.29;81.18
68230;BME280;55048;52.220;5.160;2023-05-23T04:26:27;102020.03;;;14.29;80.87
68230;BME280;55048;52.220;5.160;2023-05-23T04:28:53;102023.84;;;14.22;81.44
68230;BME280;55048;52.220;5.160;2023-05-23T04:31:20;102022.47;;;14.19;81.32
68230;BME280;55048;52.220;5.160;2023-05-23T04:33:48;102035.59;;;14.21;80.95
68230;BME280;55048;52.220;5.160;2023-05-23T04:36:15;102047.19;;;14.03;80.86
68230;BME280;55048;52.220;5.160;2023-05-23T04:38:53;102038.16;;;14.04;81.06
68230;BME280;55048;52.220;5.160;2023-05-23T04:41:20;102039.53;;;14.07;80.50
68230;BME280;55048;52.220;5.160;2023-05-23T04:44:13;102039.19;;;14.03;80.19
68230;BME280;55048;52.220;5.160;2023-05-23T04:47:02;102039.66;;;14.00;79.69
68230;BME280;55048;52.220;5.160;2023-05-23T04:49:41;102039.97;;;13.92;79.99
68230;BME280;55048;52.220;5.160;2023-05-23T04:52:08;102046.47;;;13.84;80.59
68230;BME280;55048;52.220;5.160;2023-05-23T04:54:37;102046.00;;;13.87;79.82
68230;BME280;55048;52.220;5.160;2023-05-23T04:57:07;102035.06;;;13.77;79.55
68230;BME280;55048;52.220;5.160;2023-05-23T04:59:49;102055.66;;;13.88;78.77
68230;BME280;55048;52.220;5.160;2023-05-23T05:02:16;102052.53;;;13.91;77.34
68230;BME280;55048;52.220;5.160;2023-05-23T05:12:00;102080.53;;;13.77;76.57
68230;BME280;55048;52.220;5.160;2023-05-23T05:21:27;102091.47;;;13.87;75.51
68230;BME280;55048;52.220;5.160;2023-05-23T05:24:07;102095.22;;;13.98;75.33
68230;BME280;55048;52.220;5.160;2023-05-23T05:30:16;101926.38;;;12.81;74.79
68230;BME280;55048;52.220;5.160;2023-05-23T05:33:24;101966.81;;;13.14;74.15
68230;BME280;55048;52.220;5.160;2023-05-23T05:36:40;101965.28;;;13.25;73.68
68230;BME280;55048;52.220;5.160;2023-05-23T05:39:27;101968.16;;;13.23;73.52
68230;BME280;55048;52.220;5.160;2023-05-23T05:41:55;101967.34;;;13.23;73.79
68230;BME280;55048;52.220;5.160;2023-05-23T05:44:26;102070.22;;;13.92;73.46
68230;BME280;55048;52.220;5.160;2023-05-23T05:50:39;102136.44;;;14.09;74.23
68230;BME280;55048;52.220;5.160;2023-05-23T05:53:32;102013.28;;;13.32;74.17
68230;BME280;55048;52.220;5.160;2023-05-23T05:56:26;102008.38;;;13.28;74.68
68230;BME280;55048;52.220;5.160;2023-05-23T05:59:17;102137.47;;;14.08;73.86
68230;BME280;55048;52.220;5.160;2023-05-23T06:01:53;102134.13;;;13.82;74.02
68230;BME280;55048;52.220;5.160;2023-05-23T06:04:41;101977.09;;;12.99;73.33
68230;BME280;55048;52.220;5.160;2023-05-23T06:07:07;102127.78;;;13.95;73.37
68230;BME280;55048;52.220;5.160;2023-05-23T06:09:32;102135.69;;;13.90;73.73
68230;BME280;55048;52.220;5.160;2023-05-23T06:11:58;102131.69;;;13.81;74.06
68230;BME280;55048;52.220;5.160;2023-05-23T06:14:24;102137.50;;;13.89;73.79
68230;BME280;55048;52.220;5.160;2023-05-23T06:16:50;102145.41;;;13.84;74.49
68230;BME280;55048;52.220;5.160;2023-05-23T06:19:15;102142.84;;;13.89;74.39
68230;BME280;55048;52.220;5.160;2023-05-23T06:21:41;102147.19;;;13.90;74.84
68230;BME280;55048;52.220;5.160;2023-05-23T06:24:09;102149.78;;;13.78;75.70
68230;BME280;55048;52.220;5.160;2023-05-23T06:26:34;102144.69;;;13.77;75.98
68230;BME280;55048;52.220;5.160;2023-05-23T06:29:02;102150.47;;;13.74;76.68
68230;BME280;55048;52.220;5.160;2023-05-23T06:31:41;102078.06;;;13.27;77.18
68230;BME280;55048;52.220;5.160;2023-05-23T06:34:39;101992.38;;;12.73;77.57
68230;BME280;55048;52.220;5.160;2023-05-23T06:37:54;102165.69;;;13.73;78.70
68230;BME280;55048;52.220;5.160;2023-05-23T06:40:49;102160.22;;;13.68;79.50
68230;BME280;55048;52.220;5.160;2023-05-23T06:44:26;102160.81;;;13.52;80.05
68230;BME280;55048;52.220;5.160;2023-05-23T06:47:12;102156.44;;;13.39;80.77
68230;BME280;55048;52.220;5.160;2023-05-23T06:50:19;101975.34;;;12.13;80.76
68230;BME280;55048;52.220;5.160;2023-05-23T06:53:10;102173.81;;;13.48;80.06
68230;BME280;55048;52.220;5.160;2023-05-23T06:55:42;102146.19;;;13.36;79.96
68230;BME280;55048;52.220;5.160;2023-05-23T06:59:26;101992.97;;;12.57;78.06
68230;BME280;55048;52.220;5.160;2023-05-23T07:02:15;101980.44;;;12.58;77.13
68230;BME280;55048;52.220;5.160;2023-05-23T07:04:51;102072.50;;;13.28;75.95
68230;BME280;55048;52.220;5.160;2023-05-23T07:07:46;102107.31;;;13.70;73.54
68230;BME280;55048;52.220;5.160;2023-05-23T07:17:54;102178.06;;;14.46;68.40
68230;BME280;55048;52.220;5.160;2023-05-23T07:20:24;102177.31;;;14.58;68.06
68230;BME280;55048;52.220;5.160;2023-05-23T07:23:03;102188.25;;;14.68;67.08
68230;BME280;55048;52.220;5.160;2023-05-23T07:25:44;102093.50;;;14.03;65.90
68230;BME280;55048;52.220;5.160;2023-05-23T07:28:23;102111.41;;;14.03;65.77
68230;BME280;55048;52.220;5.160;2023-05-23T07:30:48;102181.78;;;14.45;65.16
68230;BME280;55048;52.220;5.160;2023-05-23T07:33:15;102186.47;;;14.50;65.42
68230;BME280;55048;52.220;5.160;2023-05-23T07:35:48;102146.34;;;14.20;65.09
68230;BME280;55048;52.220;5.160;2023-05-23T07:45:11;102105.16;;;14.74;63.39
68230;BME280;55048;52.220;5.160;2023-05-23T07:47:58;102083.25;;;14.77;63.00
68230;BME280;55048;52.220;5.160;2023-05-23T07:51:12;102178.50;;;15.32;63.19
68230;BME280;55048;52.220;5.160;2023-05-23T07:54:05;102056.59;;;14.59;63.29
68230;BME280;55048;52.220;5.160;2023-05-23T07:56:43;102197.25;;;15.44;63.22
68230;BME280;55048;52.220;5.160;2023-05-23T07:59:16;102195.03;;;15.41;63.10
68230;BME280;55048;52.220;5.160;2023-05-23T08:01:47;102200.38;;;15.52;62.89
68230;BME280;55048;52.220;5.160;2023-05-23T08:04:32;102111.78;;;15.07;62.81
68230;BME280;55048;52.220;5.160;2023-05-23T08:06:59;102204.22;;;15.56;61.22
68230;BME280;55048;52.220;5.160;2023-05-23T08:09:47;102196.25;;;15.62;60.25
68230;BME280;55048;52.220;5.160;2023-05-23T08:12:30;102207.97;;;15.67;60.25
68230;BME280;55048;52.220;5.160;2023-05-23T08:15:11;102084.88;;;14.67;59.10
68230;BME280;55048;52.220;5.160;2023-05-23T08:17:41;102141.25;;;15.07;59.59
68230;BME280;55048;52.220;5.160;2023-05-23T08:20:29;102122.09;;;15.15;59.42
68230;BME280;55048;52.220;5.160;2023-05-23T08:23:08;102161.56;;;15.55;59.46
68230;BME280;55048;52.220;5.160;2023-05-23T08:25:39;102046.06;;;15.04;58.72
68230;BME280;55048;52.220;5.160;2023-05-23T08:28:15;102151.78;;;15.89;58.08
68230;BME280;55048;52.220;5.160;2023-05-23T08:30:53;102045.19;;;15.68;57.07
68230;BME280;55048;52.220;5.160;2023-05-23T08:33:34;102164.06;;;16.30;56.88
68230;BME280;55048;52.220;5.160;2023-05-23T08:36:22;102068.97;;;15.52;56.74
68230;BME280;55048;52.220;5.160;2023-05-23T08:39:31;102088.69;;;15.58;55.34
68230;BME280;55048;52.220;5.160;2023-05-23T08:45:35;102241.72;;;16.94;54.86
68230;BME280;55048;52.220;5.160;2023-05-23T08:54:49;102237.78;;;17.02;54.43
68230;BME280;55048;52.220;5.160;2023-05-23T08:57:40;102254.50;;;16.87;54.45
68230;BME280;55048;52.220;5.160;2023-05-23T09:03:55;102108.81;;;16.01;53.50
68230;BME280;55048;52.220;5.160;2023-05-23T09:07:04;102093.88;;;16.05;53.18
68230;BME280;55048;52.220;5.160;2023-05-23T09:09:58;102109.53;;;15.96;54.16
68230;BME280;55048;52.220;5.160;2023-05-23T09:12:31;102099.00;;;15.78;53.99
68230;BME280;55048;52.220;5.160;2023-05-23T09:18:39;102111.22;;;16.65;51.71
68230;BME280;55048;52.220;5.160;2023-05-23T09:21:35;102202.69;;;16.92;52.07
68230;BME280;55048;52.220;5.160;2023-05-23T09:24:45;102274.47;;;17.08;52.85
68230;BME280;55048;52.220;5.160;2023-05-23T09:27:51;102099.06;;;16.12;52.37
68230;BME280;55048;52.220;5.160;2023-05-23T09:30:35;102119.09;;;16.38;51.71
68230;BME280;55048;52.220;5.160;2023-05-23T09:33:42;102277.03;;;17.20;52.51
68230;BME280;55048;52.220;5.160;2023-05-23T09:36:08;102277.63;;;17.05;52.90
68230;BME280;55048;52.220;5.160;2023-05-23T09:38:38;102276.34;;;17.07;53.38
68230;BME280;55048;52.220;5.160;2023-05-23T09:41:04;102259.94;;;16.92;53.57
68230;BME280;55048;52.220;5.160;2023-05-23T09:43:30;102269.56;;;17.05;53.51
68230;BME280;55048;52.220;5.160;2023-05-23T09:46:03;102264.09;;;17.00;53.37
68230;BME280;55048;52.220;5.160;2023-05-23T09:48:31;102281.59;;;17.19;52.62
68230;BME280;55048;52.220;5.160;2023-05-23T09:50:57;102271.38;;;17.16;51.78
68230;BME280;55048;52.220;5.160;2023-05-23T09:53:23;102278.13;;;17.57;51.47
68230;BME280;55048;52.220;5.160;2023-05-23T09:55:53;102253.44;;;17.77;50.52
68230;BME280;55048;52.220;5.160;2023-05-23T09:58:22;102269.38;;;17.67;50.55
68230;BME280;55048;52.220;5.160;2023-05-23T10:00:52;102277.97;;;17.64;51.03
68230;BME280;55048;52.220;5.160;2023-05-23T10:03:26;102277.13;;;17.42;51.90
68230;BME280;55048;52.220;5.160;2023-05-23T10:06:09;102271.75;;;17.25;52.37
68230;BME280;55048;52.220;5.160;2023-05-23T10:11:28;102295.31;;;17.18;54.04
68230;BME280;55048;52.220;5.160;2023-05-23T10:14:17;102297.91;;;16.96;54.54
68230;BME280;55048;52.220;5.160;2023-05-23T10:17:11;102273.91;;;16.61;53.00
68230;BME280;55048;52.220;5.160;2023-05-23T10:22:17;102293.34;;;16.96;52.44
68230;BME280;55048;52.220;5.160;2023-05-23T10:24:44;102300.03;;;17.27;52.16
68230;BME280;55048;52.220;5.160;2023-05-23T10:27:11;102292.22;;;17.26;52.76
68230;BME280;55048;52.220;5.160;2023-05-23T10:29:37;102300.75;;;17.23;53.22
68230;BME280;55048;52.220;5.160;2023-05-23T10:32:04;102299.06;;;17.17;53.49
68230;BME280;55048;52.220;5.160;2023-05-23T10:37:16;102304.75;;;17.20;54.06
68230;BME280;55048;52.220;5.160;2023-05-23T10:40:03;102320.31;;;17.18;53.94
68230;BME280;55048;52.220;5.160;2023-05-23T10:45:39;102311.00;;;17.43;52.91
68230;BME280;55048;52.220;5.160;2023-05-23T10:48:31;102304.47;;;17.55;52.10
68230;BME280;55048;52.220;5.160;2023-05-23T10:51:05;102301.97;;;17.32;50.61
68230;BME280;55048;52.220;5.160;2023-05-23T10:53:34;102306.38;;;17.38;50.37
68230;BME280;55048;52.220;5.160;2023-05-23T10:56:00;102300.91;;;17.72;49.49
68230;BME280;55048;52.220;5.160;2023-05-23T10:58:29;102296.28;;;17.84;48.75
68230;BME280;55048;52.220;5.160;2023-05-23T11:01:02;102309.25;;;17.87;48.76
68230;BME280;55048;52.220;5.160;2023-05-23T11:03:52;102302.38;;;17.96;48.55
68230;BME280;55048;52.220;5.160;2023-05-23T11:06:36;102304.84;;;17.81;49.86
68230;BME280;55048;52.220;5.160;2023-05-23T11:09:03;102307.50;;;17.59;50.22
68230;BME280;55048;52.220;5.160;2023-05-23T11:12:01;102306.69;;;17.42;51.30
68230;BME280;55048;52.220;5.160;2023-05-23T11:16:58;102326.59;;;17.07;53.21
68230;BME280;55048;52.220;5.160;2023-05-23T11:19:26;102277.56;;;16.71;54.16
68230;BME280;55048;52.220;5.160;2023-05-23T11:22:02;102317.19;;;16.76;54.99
68230;BME280;55048;52.220;5.160;2023-05-23T11:24:52;102313.94;;;16.91;54.99
68230;BME280;55048;52.220;5.160;2023-05-23T11:27:26;102321.94;;;17.02;55.26
68230;BME280;55048;52.220;5.160;2023-05-23T11:30:07;102316.16;;;17.11;53.34
68230;BME280;55048;52.220;5.160;2023-05-23T11:32:34;102302.47;;;17.12;52.83
68230;BME280;55048;52.220;5.160;2023-05-23T11:35:10;102285.28;;;16.96;52.57
68230;BME280;55048;52.220;5.160;2023-05-23T11:37:54;102329.16;;;16.85;52.32
68230;BME280;55048;52.220;5.160;2023-05-23T11:40:34;102319.63;;;16.77;52.28
68230;BME280;55048;52.220;5.160;2023-05-23T11:43:25;102324.47;;;17.09;52.56
68230;BME280;55048;52.220;5.160;2023-05-23T11:45:51;102277.28;;;17.01;52.25
68230;BME280;55048;52.220;5.160;2023-05-23T11:48:16;102330.56;;;17.38;52.04
68230;BME280;55048;52.220;5.160;2023-05-23T11:50:52;102326.44;;;17.30;53.08
68230;BME280;55048;52.220;5.160;2023-05-23T11:53:20;102294.00;;;17.03;52.57
68230;BME280;55048;52.220;5.160;2023-05-23T11:55:53;102257.25;;;16.92;52.43
68230;BME280;55048;52.220;5.160;2023-05-23T11:58:20;102318.84;;;17.44;51.81
68230;BME280;55048;52.220;5.160;2023-05-23T12:00:46;102304.47;;;17.55;51.57
68230;BME280;55048;52.220;5.160;2023-05-23T12:03:12;102315.25;;;18.16;50.78
68230;BME280;55048;52.220;5.160;2023-05-23T12:05:37;102300.50;;;17.97;48.94
68230;BME280;55048;52.220;5.160;2023-05-23T12:08:03;102261.75;;;17.59;49.80
68230;BME280;55048;52.220;5.160;2023-05-23T12:10:28;102255.94;;;17.67;49.46
68230;BME280;55048;52.220;5.160;2023-05-23T12:12:53;102327.09;;;18.15;49.14
68230;BME280;55048;52.220;5.160;2023-05-23T12:15:25;102322.78;;;17.92;48.66
68230;BME280;55048;52.220;5.160;2023-05-23T12:17:54;102340.19;;;17.68;49.65
68230;BME280;55048;52.220;5.160;2023-05-23T12:20:23;102296.25;;;17.45;50.49
68230;BME280;55048;52.220;5.160;2023-05-23T12:22:48;102295.94;;;17.25;50.99
68230;BME280;55048;52.220;5.160;2023-05-23T12:25:13;102285.09;;;17.20;50.56
68230;BME280;55048;52.220;5.160;2023-05-23T12:27:40;102336.09;;;17.48;50.72
68230;BME280;55048;52.220;5.160;2023-05-23T12:30:10;102334.53;;;17.69;50.07
68230;BME280;55048;52.220;5.160;2023-05-23T12:32:40;102331.41;;;17.94;49.66
68230;BME280;55048;52.220;5.160;2023-05-23T12:35:10;102317.81;;;17.84;49.59
68230;BME280;55048;52.220;5.160;2023-05-23T12:37:43;102289.59;;;17.87;49.40
68230;BME280;55048;52.220;5.160;2023-05-23T12:40:19;102342.69;;;17.91;48.72
68230;BME280;55048;52.220;5.160;2023-05-23T12:42:55;102335.03;;;17.83;49.28
68230;BME280;55048;52.220;5.160;2023-05-23T12:45:30;102317.00;;;17.67;49.11
68230;BME280;55048;52.220;5.160;2023-05-23T12:47:56;102331.44;;;17.60;49.26
68230;BME280;55048;52.220;5.160;2023-05-23T12:50:22;102339.91;;;17.69;49.32
68230;BME280;55048;52.220;5.160;2023-05-23T12:53:16;102346.03;;;17.48;49.84
68230;BME280;55048;52.220;5.160;2023-05-23T12:55:42;102326.41;;;17.47;50.26
68230;BME280;55048;52.220;5.160;2023-05-23T12:58:13;102336.03;;;17.77;49.39
68230;BME280;55048;52.220;5.160;2023-05-23T13:05:00;102193.75;;;16.24;51.04
68230;BME280;55048;52.220;5.160;2023-05-23T13:08:15;102296.09;;;16.85;49.13
68230;BME280;55048;52.220;5.160;2023-05-23T13:11:06;102187.28;;;16.53;48.26
68230;BME280;55048;52.220;5.160;2023-05-23T13:13:41;102305.72;;;17.14;47.42
68230;BME280;55048;52.220;5.160;2023-05-23T13:16:30;102204.22;;;16.71;47.65
68230;BME280;55048;52.220;5.160;2023-05-23T13:19:37;102355.09;;;17.75;48.03
68230;BME280;55048;52.220;5.160;2023-05-23T13:22:05;102351.59;;;17.58;48.34
68230;BME280;55048;52.220;5.160;2023-05-23T13:24:36;102346.31;;;17.46;49.27
68230;BME280;55048;52.220;5.160;2023-05-23T13:27:04;102356.56;;;17.49;49.78
68230;BME280;55048;52.220;5.160;2023-05-23T13:29:30;102085.06;;;15.93;49.83
68230;BME280;55048;52.220;5.160;2023-05-23T13:31:56;101850.03;;;14.39;49.55
68230;BME280;55048;52.220;5.160;2023-05-23T13:34:22;102119.47;;;15.96;49.12
68230;BME280;55048;52.220;5.160;2023-05-23T13:36:48;102355.69;;;17.77;48.41
68230;BME280;55048;52.220;5.160;2023-05-23T13:39:14;101873.47;;;14.72;48.36
68230;BME280;55048;52.220;5.160;2023-05-23T13:41:39;102234.63;;;17.05;47.52
68230;BME280;55048;52.220;5.160;2023-05-23T13:44:05;101988.28;;;15.66;46.65
68230;BME280;55048;52.220;5.160;2023-05-23T13:46:31;102101.16;;;16.94;45.02
68230;BME280;55048;52.220;5.160;2023-05-23T13:48:56;102213.97;;;17.44;44.77
68230;BME280;55048;52.220;5.160;2023-05-23T13:51:22;101855.16;;;15.26;45.36
68230;BME280;55048;52.220;5.160;2023-05-23T13:53:50;101923.44;;;15.23;46.62
68230;BME280;55048;52.220;5.160;2023-05-23T13:56:16;102079.41;;;16.23;47.87
68230;BME280;55048;52.220;5.160;2023-05-23T13:58:42;102001.34;;;15.62;48.10
68230;BME280;55048;52.220;5.160;2023-05-23T14:01:11;102042.06;;;16.04;48.12
68230;BME280;55048;52.220;5.160;2023-05-23T14:03:37;102370.19;;;18.15;47.68
68230;BME280;55048;52.220;5.160;2023-05-23T14:06:03;101929.44;;;15.59;47.66
68230;BME280;55048;52.220;5.160;2023-05-23T14:08:29;102346.00;;;18.20;47.30
68230;BME280;55048;52.220;5.160;2023-05-23T14:10:55;102337.78;;;17.88;47.99
68230;BME280;55048;52.220;5.160;2023-05-23T14:13:20;102345.31;;;17.86;48.10
68230;BME280;55048;52.220;5.160;2023-05-23T14:15:47;102344.75;;;18.06;46.96
68230;BME280;55048;52.220;5.160;2023-05-23T14:18:12;102328.97;;;17.93;47.18
68230;BME280;55048;52.220;5.160;2023-05-23T14:20:38;102314.28;;;18.00;46.91
68230;BME280;55048;52.220;5.160;2023-05-23T14:23:03;102330.72;;;18.26;46.29
68230;BME280;55048;52.220;5.160;2023-05-23T14:25:29;102312.06;;;18.19;45.72
68230;BME280;55048;52.220;5.160;2023-05-23T14:27:54;102318.72;;;18.12;46.38
68230;BME280;55048;52.220;5.160;2023-05-23T14:30:20;102321.34;;;18.06;45.96
68230;BME280;55048;52.220;5.160;2023-05-23T14:32:45;102348.31;;;18.12;46.21
68230;BME280;55048;52.220;5.160;2023-05-23T14:35:32;102345.88;;;18.10;45.60